createdAt,value
2018-08-12T00:00:40.245Z,2.50
2018-08-12T00:03:09.296Z,2.00
2018-08-12T00:05:38.644Z,2.10
2018-08-12T00:08:07.795Z,2.20
2018-08-12T00:10:37.046Z,2.03
2018-08-12T00:13:06.375Z,2.03
2018-08-12T00:15:35.610Z,2.03
2018-08-12T00:18:04.886Z,2.50
2018-08-12T00:20:34.122Z,2.67
2018-08-12T00:23:03.482Z,2.43
2018-08-12T00:25:32.626Z,2.83
2018-08-12T00:28:02.017Z,2.87
2018-08-12T00:30:31.268Z,2.23
2018-08-12T00:33:00.270Z,2.40
2018-08-12T00:35:29.336Z,2.37
2018-08-12T00:37:58.618Z,2.17
2018-08-12T00:40:27.835Z,2.33
2018-08-12T00:42:57.376Z,2.17
2018-08-12T00:45:26.675Z,2.20
2018-08-12T00:47:55.893Z,2.07
2018-08-12T00:50:25.285Z,2.00
2018-08-12T00:52:54.847Z,2.47
2018-08-12T00:55:24.196Z,2.23
2018-08-12T00:57:53.214Z,2.37
2018-08-12T01:00:23.748Z,2.30
2018-08-12T01:02:54.382Z,2.70
2018-08-12T01:05:25.528Z,2.17
2018-08-12T01:07:55.917Z,2.70
2018-08-12T01:10:25.598Z,2.13
2018-08-12T01:12:54.933Z,2.10
2018-08-12T01:15:24.562Z,2.80
2018-08-12T01:17:54.221Z,2.60
2018-08-12T01:20:25.819Z,2.70
2018-08-12T01:22:55.180Z,2.30
2018-08-12T01:25:25.014Z,2.50
2018-08-12T01:27:54.642Z,2.70
2018-08-12T01:30:24.212Z,2.30
2018-08-12T01:32:53.886Z,2.33
2018-08-12T01:35:23.514Z,2.00
2018-08-12T01:37:52.867Z,1.87
2018-08-12T01:40:22.202Z,2.10
2018-08-12T01:42:51.707Z,2.47
2018-08-12T01:45:21.616Z,2.57
2018-08-12T01:47:51.147Z,2.30
2018-08-12T01:50:21.485Z,2.47
2018-08-12T01:52:51.915Z,2.13
2018-08-12T01:55:21.471Z,2.27
2018-08-12T01:57:51.184Z,2.13
2018-08-12T02:00:22.303Z,2.00
2018-08-12T02:02:52.407Z,2.40
2018-08-12T02:05:22.280Z,2.07
2018-08-12T02:07:52.293Z,2.10
2018-08-12T02:10:22.269Z,2.40
2018-08-12T02:12:52.045Z,2.30
2018-08-12T02:15:21.756Z,2.33
2018-08-12T02:17:50.956Z,2.20
2018-08-12T02:20:20.092Z,2.47
2018-08-12T02:22:49.308Z,2.23
2018-08-12T02:25:18.594Z,2.33
2018-08-12T02:27:47.758Z,2.37
2018-08-12T02:30:16.844Z,2.20
2018-08-12T02:32:45.885Z,2.40
2018-08-12T02:35:14.938Z,2.27
2018-08-12T02:37:44.215Z,2.10
2018-08-12T02:40:13.242Z,2.30
2018-08-12T02:42:42.418Z,2.53
2018-08-12T02:45:13.628Z,2.50
2018-08-12T02:47:42.821Z,3.20
2018-08-12T02:50:12.316Z,2.80
2018-08-12T02:52:41.403Z,3.20
2018-08-12T02:55:11.167Z,2.40
2018-08-12T02:57:40.545Z,2.47
2018-08-12T03:00:11.240Z,2.67
2018-08-12T03:02:40.570Z,2.30
2018-08-12T03:05:09.640Z,2.00
2018-08-12T03:07:39.113Z,2.37
2018-08-12T03:10:08.553Z,2.60
2018-08-12T03:12:37.898Z,2.40
2018-08-12T03:15:08.398Z,2.40
2018-08-12T03:17:37.867Z,2.47
2018-08-12T03:20:09.128Z,2.57
2018-08-12T03:22:38.364Z,2.33
2018-08-12T03:25:08.858Z,2.40
2018-08-12T03:27:38.216Z,2.30
2018-08-12T03:30:08.422Z,2.30
2018-08-12T03:32:37.555Z,2.67
2018-08-12T03:35:06.609Z,2.10
2018-08-12T03:37:35.734Z,2.27
2018-08-12T03:40:07.370Z,2.20
2018-08-12T03:42:36.490Z,2.27
2018-08-12T03:45:06.992Z,2.30
2018-08-12T03:47:36.123Z,2.30
2018-08-12T03:50:05.759Z,2.63
2018-08-12T03:52:34.815Z,2.50
2018-08-12T03:55:04.714Z,2.50
2018-08-12T03:57:33.773Z,2.40
2018-08-12T04:00:02.789Z,2.17
2018-08-12T04:02:31.994Z,2.73
2018-08-12T04:05:01.221Z,2.70
2018-08-12T04:07:30.602Z,2.30
2018-08-12T04:09:59.881Z,2.30
2018-08-12T04:12:29.251Z,3.13
2018-08-12T04:14:58.383Z,2.30
2018-08-12T04:17:27.647Z,2.63
2018-08-12T04:19:56.867Z,2.73
2018-08-12T04:22:26.163Z,2.50
2018-08-12T04:24:55.375Z,2.80
2018-08-12T04:27:24.495Z,2.60
2018-08-12T04:29:53.855Z,2.23
2018-08-12T04:32:23.196Z,2.33
2018-08-12T04:34:52.564Z,1.83
2018-08-12T04:37:22.146Z,2.50
2018-08-12T04:39:51.243Z,2.10
2018-08-12T04:42:20.281Z,1.87
2018-08-12T04:44:49.293Z,1.80
2018-08-12T04:47:18.360Z,1.80
2018-08-12T04:49:47.595Z,1.80
2018-08-12T04:52:16.883Z,1.70
2018-08-12T04:54:46.254Z,1.60
2018-08-12T04:57:15.363Z,1.60
2018-08-12T04:59:44.589Z,1.90
2018-08-12T05:02:13.710Z,1.60
2018-08-12T05:04:43.085Z,1.50
2018-08-12T05:07:12.465Z,1.90
2018-08-12T05:09:41.628Z,2.10
2018-08-12T05:12:10.918Z,1.73
2018-08-12T05:14:40.330Z,1.80
2018-08-12T05:17:09.646Z,1.77
2018-08-12T05:19:38.898Z,2.00
2018-08-12T05:22:08.117Z,1.50
2018-08-12T05:24:37.583Z,1.53
2018-08-12T05:27:07.180Z,1.67
2018-08-12T05:29:36.619Z,1.50
2018-08-12T05:32:06.209Z,1.60
2018-08-12T05:34:35.654Z,1.53
2018-08-12T05:37:05.066Z,1.40
2018-08-12T05:39:34.463Z,1.37
2018-08-12T05:42:04.059Z,1.30
2018-08-12T05:44:33.460Z,1.30
2018-08-12T05:47:02.921Z,1.53
2018-08-12T05:49:32.380Z,1.30
2018-08-12T05:52:01.874Z,1.23
2018-08-12T05:54:31.221Z,1.10
2018-08-12T05:57:00.565Z,1.02
2018-08-12T05:59:29.907Z,1.40
2018-08-12T06:01:59.347Z,1.50
2018-08-12T06:04:28.666Z,1.15
2018-08-12T06:06:58.060Z,1.40
2018-08-12T06:09:27.503Z,1.20
2018-08-12T06:11:56.768Z,1.20
2018-08-12T06:14:26.164Z,2.02
2018-08-12T06:16:56.532Z,1.65
2018-08-12T06:19:25.830Z,1.32
2018-08-12T06:21:55.107Z,1.42
2018-08-12T06:24:24.226Z,1.32
2018-08-12T06:26:53.447Z,1.27
2018-08-12T06:29:22.473Z,1.25
2018-08-12T06:31:51.861Z,1.60
2018-08-12T06:34:21.167Z,1.30
2018-08-12T06:36:50.370Z,1.60
2018-08-12T06:39:19.559Z,1.70
2018-08-12T06:41:48.949Z,1.35
2018-08-12T06:44:18.130Z,1.35
2018-08-12T06:46:47.370Z,1.52
2018-08-12T06:49:16.693Z,1.20
2018-08-12T06:51:46.131Z,1.20
2018-08-12T06:54:15.469Z,1.20
2018-08-12T06:56:44.764Z,1.40
2018-08-12T06:59:14.218Z,1.10
2018-08-12T07:01:43.469Z,1.10
2018-08-12T07:04:13.269Z,1.00
2018-08-12T07:06:42.536Z,1.02
2018-08-12T07:09:12.241Z,0.90
2018-08-12T07:11:41.559Z,1.00
2018-08-12T07:14:10.893Z,1.02
2018-08-12T07:16:40.189Z,0.90
2018-08-12T07:19:09.546Z,0.90
2018-08-12T07:21:38.944Z,0.80
2018-08-12T07:24:08.368Z,1.10
2018-08-12T07:26:37.696Z,1.20
2018-08-12T07:29:07.475Z,1.20
2018-08-12T07:31:36.607Z,1.20
2018-08-12T07:34:05.862Z,1.30
2018-08-12T07:36:35.088Z,1.20
2018-08-12T07:39:05.874Z,1.30
2018-08-12T07:41:35.187Z,1.50
2018-08-12T07:44:04.444Z,1.57
2018-08-12T07:46:34.014Z,1.17
2018-08-12T07:49:03.778Z,1.32
2018-08-12T07:51:33.277Z,1.20
2018-08-12T07:54:03.330Z,1.05
2018-08-12T07:56:32.672Z,0.90
2018-08-12T07:59:02.245Z,1.10
2018-08-12T08:01:31.398Z,1.00
2018-08-12T08:04:00.642Z,1.12
2018-08-12T08:06:29.799Z,1.00
2018-08-12T08:08:59.053Z,1.35
2018-08-12T08:11:28.099Z,1.10
2018-08-12T08:13:57.208Z,1.72
2018-08-12T08:16:26.519Z,0.93
2018-08-12T08:18:55.760Z,1.30
2018-08-12T08:21:25.154Z,1.10
2018-08-12T08:23:54.470Z,1.07
2018-08-12T08:26:23.717Z,1.05
2018-08-12T08:28:52.901Z,0.98
2018-08-12T08:31:22.372Z,1.32
2018-08-12T08:33:51.891Z,1.30
2018-08-12T08:36:21.863Z,0.90
2018-08-12T08:38:51.215Z,1.20
2018-08-12T08:41:20.632Z,1.15
2018-08-12T08:43:50.040Z,1.10
2018-08-12T08:46:19.332Z,1.02
2018-08-12T08:48:48.630Z,1.10
2018-08-12T08:51:17.845Z,1.10
2018-08-12T08:53:47.154Z,1.02
2018-08-12T08:56:16.200Z,0.95
2018-08-12T08:58:45.358Z,1.02
2018-08-12T09:01:14.518Z,1.15
2018-08-12T09:03:44.012Z,1.00
2018-08-12T09:06:13.448Z,0.90
2018-08-12T09:08:43.142Z,0.78
2018-08-12T09:11:12.172Z,0.72
2018-08-12T09:13:41.437Z,1.02
2018-08-12T09:16:10.927Z,1.27
2018-08-12T09:18:40.336Z,1.00
2018-08-12T09:21:09.499Z,1.17
2018-08-12T09:23:38.694Z,1.00
2018-08-12T09:26:07.960Z,0.82
2018-08-12T09:28:37.254Z,0.88
2018-08-12T09:31:06.626Z,0.90
2018-08-12T09:33:35.673Z,1.00
2018-08-12T09:36:04.936Z,0.98
2018-08-12T09:38:34.196Z,0.90
2018-08-12T09:41:03.784Z,1.00
2018-08-12T09:43:33.163Z,0.78
2018-08-12T09:46:02.813Z,1.15
2018-08-12T09:48:32.417Z,1.25
2018-08-12T09:51:01.593Z,1.00
2018-08-12T09:53:30.946Z,1.00
2018-08-12T09:56:00.312Z,1.00
2018-08-12T09:58:29.525Z,0.88
2018-08-12T10:00:58.878Z,1.07
2018-08-12T10:03:28.025Z,1.10
2018-08-12T10:05:57.323Z,1.32
2018-08-12T10:08:26.590Z,0.93
2018-08-12T10:11:02.559Z,0.80
2018-08-12T10:13:31.837Z,0.80
2018-08-12T10:16:01.184Z,1.00
2018-08-12T10:18:30.736Z,1.00
2018-08-12T10:20:59.883Z,0.93
2018-08-12T10:23:29.358Z,0.85
2018-08-12T10:25:58.589Z,1.00
2018-08-12T10:28:27.966Z,0.70
2018-08-12T10:30:57.130Z,1.10
2018-08-12T10:33:26.400Z,1.20
2018-08-12T10:35:55.750Z,1.00
2018-08-12T10:38:24.861Z,1.00
2018-08-12T10:40:54.155Z,0.80
2018-08-12T10:43:23.661Z,0.90
2018-08-12T10:45:52.879Z,1.20
2018-08-12T10:48:22.213Z,1.00
2018-08-12T10:50:51.560Z,1.05
2018-08-12T10:53:20.680Z,1.30
2018-08-12T10:55:50.001Z,0.93
2018-08-12T10:58:19.207Z,0.90
2018-08-12T11:00:48.688Z,0.93
2018-08-12T11:03:18.339Z,0.95
2018-08-12T11:05:50.076Z,0.80
2018-08-12T11:08:19.389Z,0.93
2018-08-12T11:10:48.759Z,0.80
2018-08-12T11:13:17.822Z,0.90
2018-08-12T11:15:47.087Z,1.10
2018-08-12T11:18:16.106Z,0.88
2018-08-12T11:20:45.356Z,0.90
2018-08-12T11:23:14.480Z,0.93
2018-08-12T11:25:43.614Z,0.80
2018-08-12T11:28:12.747Z,0.78
2018-08-12T11:30:41.999Z,4.78
2018-08-12T11:33:11.263Z,3.20
2018-08-12T11:35:40.491Z,1.70
2018-08-12T11:38:09.710Z,1.62
2018-08-12T11:40:39.114Z,1.95
2018-08-12T11:43:08.534Z,1.70
2018-08-12T11:45:37.809Z,1.20
2018-08-12T11:48:07.061Z,1.70
2018-08-12T11:50:36.487Z,1.35
2018-08-12T11:53:05.918Z,1.10
2018-08-12T11:55:35.085Z,1.30
2018-08-12T11:58:04.221Z,1.25
2018-08-12T12:00:33.420Z,0.80
2018-08-12T12:03:02.689Z,0.88
2018-08-12T12:05:32.058Z,1.00
2018-08-12T12:08:01.104Z,1.05
2018-08-12T12:10:30.495Z,1.07
2018-08-12T12:12:59.720Z,1.05
2018-08-12T12:15:28.826Z,1.10
2018-08-12T12:17:57.928Z,1.30
2018-08-12T12:20:27.159Z,1.00
2018-08-12T12:22:56.296Z,0.82
2018-08-12T12:25:25.407Z,1.00
2018-08-12T12:27:54.486Z,1.30
2018-08-12T12:30:23.996Z,0.85
2018-08-12T12:32:54.171Z,1.10
2018-08-12T12:35:23.543Z,0.70
2018-08-12T12:37:52.720Z,1.00
2018-08-12T12:40:21.764Z,0.90
2018-08-12T12:42:51.100Z,1.00
2018-08-12T12:45:20.345Z,0.93
2018-08-12T12:47:50.062Z,1.20
2018-08-12T12:50:21.156Z,0.88
2018-08-12T12:52:51.509Z,1.02
2018-08-12T12:55:21.859Z,0.70
2018-08-12T12:57:50.932Z,0.82
2018-08-12T13:00:21.058Z,0.90
2018-08-12T13:02:50.550Z,0.90
2018-08-12T13:05:20.943Z,1.00
2018-08-12T13:07:50.793Z,0.93
2018-08-12T13:10:26.444Z,0.75
2018-08-12T13:12:55.837Z,0.90
2018-08-12T13:15:25.146Z,0.90
2018-08-12T13:17:54.425Z,0.88
2018-08-12T13:20:23.780Z,0.90
2018-08-12T13:22:53.095Z,0.78
2018-08-12T13:25:23.491Z,1.10
2018-08-12T13:27:52.890Z,0.90
2018-08-12T13:30:22.550Z,0.90
2018-08-12T13:32:51.988Z,1.00
2018-08-12T13:35:21.114Z,0.80
2018-08-12T13:37:50.389Z,0.88
2018-08-12T13:40:19.706Z,0.90
2018-08-12T13:42:49.151Z,1.10
2018-08-12T13:45:18.446Z,0.98
2018-08-12T13:47:47.715Z,1.12
2018-08-12T13:50:22.063Z,0.80
2018-08-12T13:52:52.006Z,1.10
2018-08-12T13:55:22.088Z,0.98
2018-08-12T13:57:52.449Z,1.00
2018-08-12T14:00:23.420Z,0.90
2018-08-12T14:02:52.954Z,1.10
2018-08-12T14:05:22.717Z,1.00
2018-08-12T14:07:52.316Z,1.00
2018-08-12T14:10:21.650Z,1.07
2018-08-12T14:12:50.934Z,1.20
2018-08-12T14:15:21.215Z,0.78
2018-08-12T14:17:51.198Z,0.80
2018-08-12T14:20:21.351Z,0.93
2018-08-12T14:22:50.878Z,1.10
2018-08-12T14:25:20.312Z,0.90
2018-08-12T14:27:49.706Z,0.70
2018-08-12T14:30:20.704Z,0.93
2018-08-12T14:32:51.352Z,1.00
2018-08-12T14:35:20.678Z,1.02
2018-08-12T14:37:50.045Z,1.07
2018-08-12T14:40:20.066Z,1.00
2018-08-12T14:42:49.493Z,0.80
2018-08-12T14:45:18.897Z,0.90
2018-08-12T14:47:48.193Z,0.90
2018-08-12T14:50:19.611Z,1.00
2018-08-12T14:52:48.944Z,1.37
2018-08-12T14:55:19.579Z,0.90
2018-08-12T14:57:48.933Z,1.12
2018-08-12T15:00:20.836Z,1.10
2018-08-12T15:02:51.543Z,0.80
2018-08-12T15:05:21.157Z,1.00
2018-08-12T15:07:50.822Z,2.30
2018-08-12T15:10:20.104Z,1.22
2018-08-12T15:12:49.313Z,1.10
2018-08-12T15:15:18.609Z,0.85
2018-08-12T15:17:47.816Z,0.90
2018-08-12T15:20:17.655Z,0.80
2018-08-12T15:22:46.754Z,1.10
2018-08-12T15:25:18.399Z,0.98
2018-08-12T15:27:47.845Z,0.72
2018-08-12T15:30:17.366Z,1.00
2018-08-12T15:32:46.655Z,0.82
2018-08-12T15:35:15.987Z,0.88
2018-08-12T15:37:45.196Z,1.25
2018-08-12T15:40:15.093Z,0.90
2018-08-12T15:42:44.735Z,1.00
2018-08-12T15:45:16.349Z,0.98
2018-08-12T15:47:46.080Z,1.20
2018-08-12T15:50:15.524Z,0.98
2018-08-12T15:52:45.836Z,0.90
2018-08-12T15:55:15.295Z,1.00
2018-08-12T15:57:44.773Z,1.45
2018-08-12T16:00:19.765Z,1.47
2018-08-12T16:02:49.157Z,1.10
2018-08-12T16:05:18.694Z,1.00
2018-08-12T16:07:48.752Z,0.85
2018-08-12T16:10:21.613Z,1.00
2018-08-12T16:12:52.108Z,1.12
2018-08-12T16:15:21.969Z,1.30
2018-08-12T16:17:51.336Z,1.27
2018-08-12T16:20:20.803Z,1.20
2018-08-12T16:22:50.307Z,1.05
2018-08-12T16:25:21.878Z,1.05
2018-08-12T16:27:51.287Z,0.93
2018-08-12T16:30:20.858Z,0.90
2018-08-12T16:32:50.237Z,1.25
2018-08-12T16:35:19.634Z,1.07
2018-08-12T16:37:49.107Z,0.95
2018-08-12T16:40:19.853Z,1.20
2018-08-12T16:42:49.505Z,1.07
2018-08-12T16:45:19.311Z,0.98
2018-08-12T16:47:49.007Z,1.60
2018-08-12T16:50:18.313Z,1.32
2018-08-12T16:52:47.660Z,1.30
2018-08-12T16:55:18.109Z,1.10
2018-08-12T16:57:48.200Z,1.40
2018-08-12T17:00:20.417Z,1.27
2018-08-12T17:02:49.926Z,1.20
2018-08-12T17:05:20.439Z,1.10
2018-08-12T17:07:50.266Z,1.27
2018-08-12T17:10:20.455Z,1.00
2018-08-12T17:12:49.758Z,1.07
2018-08-12T17:15:20.615Z,1.30
2018-08-12T17:17:50.499Z,1.00
2018-08-12T17:20:21.219Z,1.10
2018-08-12T17:22:51.475Z,1.17
2018-08-12T17:25:20.942Z,1.40
2018-08-12T17:27:50.478Z,1.30
2018-08-12T17:30:19.907Z,1.02
2018-08-12T17:32:49.130Z,1.00
2018-08-12T17:35:18.398Z,1.20
2018-08-12T17:37:47.711Z,1.27
2018-08-12T17:40:17.032Z,1.10
2018-08-12T17:42:46.616Z,1.22
2018-08-12T17:45:15.898Z,1.20
2018-08-12T17:47:45.245Z,1.55
2018-08-12T17:50:16.067Z,1.00
2018-08-12T17:52:45.325Z,1.10
2018-08-12T17:55:14.544Z,0.95
2018-08-12T17:57:44.019Z,0.90
2018-08-12T18:00:14.847Z,1.42
2018-08-12T18:02:44.298Z,0.98
2018-08-12T18:05:13.821Z,1.07
2018-08-12T18:07:43.192Z,1.42
2018-08-12T18:10:12.646Z,0.98
2018-08-12T18:12:42.129Z,0.90
2018-08-12T18:15:12.037Z,1.10
2018-08-12T18:17:42.000Z,1.10
2018-08-12T18:20:11.665Z,0.90
2018-08-12T18:22:41.162Z,1.20
2018-08-12T18:25:11.488Z,0.88
2018-08-12T18:27:40.682Z,1.10
2018-08-12T18:30:12.162Z,1.10
2018-08-12T18:32:41.889Z,1.25
2018-08-12T18:35:12.300Z,1.00
2018-08-12T18:37:41.846Z,1.10
2018-08-12T18:40:12.507Z,0.82
2018-08-12T18:42:41.945Z,0.95
2018-08-12T18:45:11.471Z,0.87
2018-08-12T18:47:40.848Z,1.17
2018-08-12T18:50:11.121Z,1.10
2018-08-12T18:52:40.963Z,1.17
2018-08-12T18:55:11.886Z,1.33
2018-08-12T18:57:41.453Z,1.40
2018-08-12T19:00:13.094Z,1.47
2018-08-12T19:02:42.514Z,1.93
2018-08-12T19:05:12.813Z,2.10
2018-08-12T19:07:42.632Z,1.70
2018-08-12T19:10:12.109Z,1.67
2018-08-12T19:12:42.370Z,1.80
2018-08-12T19:15:12.492Z,1.90
2018-08-12T19:17:41.815Z,1.93
2018-08-12T19:20:11.345Z,1.77
2018-08-12T19:22:40.698Z,2.07
2018-08-12T19:25:10.466Z,1.50
2018-08-12T19:27:39.867Z,1.60
2018-08-12T19:30:11.433Z,1.33
2018-08-12T19:32:40.735Z,1.50
2018-08-12T19:35:10.998Z,1.60
2018-08-12T19:37:40.762Z,2.13
2018-08-12T19:40:10.268Z,2.33
2018-08-12T19:42:39.791Z,1.83
2018-08-12T19:45:10.188Z,2.10
2018-08-12T19:47:39.678Z,2.00
2018-08-12T19:50:09.250Z,3.23
2018-08-12T19:52:38.631Z,3.30
2018-08-12T19:55:08.416Z,2.80
2018-08-12T19:57:37.878Z,3.00
2018-08-12T20:00:09.825Z,3.00
2018-08-12T20:02:39.470Z,2.20
2018-08-12T20:05:08.685Z,2.47
2018-08-12T20:07:37.958Z,2.00
2018-08-12T20:10:08.864Z,2.23
2018-08-12T20:12:38.210Z,2.37
2018-08-12T20:15:09.484Z,2.00
2018-08-12T20:17:39.561Z,2.20
2018-08-12T20:20:10.941Z,2.00
2018-08-12T20:22:40.312Z,2.00
2018-08-12T20:25:09.886Z,1.67
2018-08-12T20:27:39.120Z,1.90
2018-08-12T20:30:10.388Z,2.30
2018-08-12T20:32:40.884Z,1.97
2018-08-12T20:35:10.629Z,2.13
2018-08-12T20:37:39.995Z,2.17
2018-08-12T20:40:09.583Z,2.13
2018-08-12T20:42:39.473Z,2.60
2018-08-12T20:45:09.807Z,2.17
2018-08-12T20:47:40.005Z,1.90
2018-08-12T20:50:10.322Z,2.03
2018-08-12T20:52:40.030Z,2.37
2018-08-12T20:55:10.100Z,2.00
2018-08-12T20:57:39.442Z,2.20
2018-08-12T21:00:10.851Z,1.90
2018-08-12T21:02:40.606Z,1.90
2018-08-12T21:05:10.487Z,1.93
2018-08-12T21:07:41.252Z,1.47
2018-08-12T21:10:12.417Z,2.20
2018-08-12T21:12:42.864Z,2.57
2018-08-12T21:15:12.059Z,2.00
2018-08-12T21:17:41.444Z,2.63
2018-08-12T21:20:10.797Z,2.10
2018-08-12T21:22:40.322Z,1.93
2018-08-12T21:25:09.732Z,1.67
2018-08-12T21:27:39.091Z,1.23
2018-08-12T21:30:08.147Z,1.50
2018-08-12T21:32:37.549Z,1.30
2018-08-12T21:35:06.952Z,1.30
2018-08-12T21:37:36.355Z,1.43
2018-08-12T21:40:05.783Z,1.73
2018-08-12T21:42:35.224Z,1.50
2018-08-12T21:45:05.192Z,1.40
2018-08-12T21:47:35.049Z,1.20
2018-08-12T21:50:04.671Z,1.30
2018-08-12T21:52:34.004Z,1.30
2018-08-12T21:55:03.231Z,1.10
2018-08-12T21:57:32.486Z,1.43
2018-08-12T22:00:01.741Z,1.23
2018-08-12T22:02:31.067Z,1.50
2018-08-12T22:05:00.194Z,1.40
2018-08-12T22:07:29.524Z,1.70
2018-08-12T22:09:59.107Z,1.37
2018-08-12T22:12:28.287Z,1.30
2018-08-12T22:14:57.575Z,1.40
2018-08-12T22:17:27.033Z,1.30
2018-08-12T22:19:56.256Z,1.20
2018-08-12T22:22:25.559Z,1.40
2018-08-12T22:24:54.935Z,1.10
2018-08-12T22:27:24.181Z,1.20
2018-08-12T22:29:53.345Z,1.20
2018-08-12T22:32:22.540Z,1.33
2018-08-12T22:34:51.735Z,1.80
2018-08-12T22:37:21.454Z,1.30
2018-08-12T22:39:51.188Z,1.40
2018-08-12T22:42:20.585Z,1.70
2018-08-12T22:44:49.770Z,2.00
2018-08-12T22:47:19.021Z,1.90
2018-08-12T22:49:48.181Z,1.50
2018-08-12T22:52:17.452Z,1.60
2018-08-12T22:54:46.583Z,1.70
2018-08-12T22:57:15.824Z,1.80
2018-08-12T22:59:44.903Z,1.37
2018-08-12T23:02:14.327Z,1.70
2018-08-12T23:04:43.490Z,1.27
2018-08-12T23:07:12.718Z,1.40
2018-08-12T23:09:41.914Z,1.30
2018-08-12T23:12:11.306Z,1.40
2018-08-12T23:14:40.589Z,1.40
2018-08-12T23:17:09.747Z,1.20
2018-08-12T23:19:39.039Z,1.60
2018-08-12T23:22:08.601Z,1.57
2018-08-12T23:24:37.802Z,1.27
2018-08-12T23:27:07.027Z,1.50
2018-08-12T23:29:36.224Z,1.80
2018-08-12T23:32:06.045Z,1.77
2018-08-12T23:34:35.368Z,1.70
2018-08-12T23:37:04.555Z,1.67
2018-08-12T23:39:33.770Z,1.73
2018-08-12T23:42:02.702Z,1.40
2018-08-12T23:44:31.723Z,1.87
2018-08-12T23:47:00.899Z,1.90
2018-08-12T23:49:30.039Z,1.57
2018-08-12T23:51:59.250Z,1.80
2018-08-12T23:54:28.447Z,1.43
2018-08-12T23:56:57.670Z,1.37
2018-08-12T23:59:26.946Z,1.53
